St. JULIÀ DE VILATORTA (Osona)





Hora UTC 18:15
Temperatura 13.1 ºC
Humedad 69.9 %
Presión 1011.5 hPa
Pluja 0.0 mm
Velocidad viento 1.5 km/h
Dirección viento N
Radiación solar 15.1 W/m²

Datos diarios 2024-04-16



Hora UTC (invierno +1h; verano +2h)
Temperatura (ºC) Humedad (%) Presión (hPa) Velocidad viento (km/h) Precipitación (mm) Radiación solar (W/m²)
Hora UTC Aire Humedad Presión Vel. Dir. Vel. Max Dir. Intent. máx 5 min. Rad. Sol.
00:05 10.1 70.1 1016.0 2.0 SE 2.0 SE 0.0 0.3
00:10 9.9 69.4 1016.0 2.9 SE 7.6 S 0.0 0.0
00:15 9.7 70.5 1015.9 1.3 SSE 4.6 SSW 0.0 0.4
00:20 9.8 71.1 1015.9 2.8 S 4.8 SSW 0.0 0.8
00:25 9.7 70.4 1015.8 1.5 SE 2.6 SSE 0.0 0.1
00:30 9.5 72.0 1015.7 1.6 ESE 3.3 ESE 0.0 0.2
00:35 9.5 72.1 1015.7 2.0 ESE 3.5 E 0.0 0.1
00:40 9.3 71.3 1015.6 2.0 E 3.9 NE 0.0 0.1
00:45 9.1 72.6 1015.7 2.2 ESE 3.7 SE 0.0 0.6
00:50 9.0 73.4 1015.7 2.2 SE 3.5 SE 0.0 0.5
00:55 9.1 73.2 1015.6 1.6 ESE 3.9 ESE 0.0 0.2
01:00 8.9 73.1 1015.4 2.2 E 3.7 E 0.0 0.2
01:05 8.9 76.3 1015.5 2.9 E 4.8 ESE 0.0 0.5
01:10 9.1 75.9 1015.4 2.4 SE 5.4 ESE 0.0 0.5
01:15 8.9 72.9 1015.3 2.3 SSE 3.4 SE 0.0 0.0
01:20 8.6 73.3 1015.3 2.6 SE 4.5 SE 0.0 0.0
01:25 8.3 74.6 1015.2 2.6 SE 4.1 ESE 0.0 0.1
01:30 8.3 79.3 1015.2 3.3 E 6.4 E 0.0 0.3
01:35 8.4 79.8 1015.2 3.6 ESE 5.4 ESE 0.0 0.5
01:40 8.5 78.8 1015.1 2.8 SE 4.6 SE 0.0 0.1
01:45 8.5 77.5 1015.1 1.6 SE 3.2 SE 0.0 0.0
01:50 8.4 78.9 1015.1 2.3 SE 3.5 SE 0.0 0.3
01:55 8.6 78.8 1015.0 2.1 SE 3.4 SE 0.0 0.3
02:00 8.5 77.9 1015.0 3.1 SE 4.9 SE 0.0 0.2
02:05 8.3 79.0 1015.0 2.2 ESE 3.9 ESE 0.0 0.2
02:10 8.4 80.3 1015.0 3.6 E 5.5 E 0.0 0.2
02:15 8.4 80.6 1015.0 2.0 SE 3.0 ESE 0.0 0.1
02:20 8.4 80.7 1014.9 2.4 SE 3.3 SSE 0.0 0.1
02:25 8.2 80.1 1014.8 2.4 SE 3.3 SE 0.0 0.0
02:30 8.0 80.4 1014.7 2.9 SE 5.8 SSE 0.0 0.0
02:35 7.9 81.7 1014.6 1.5 ESE 3.7 S 0.0 0.0
02:40 7.8 83.0 1014.5 3.5 E 5.3 ENE 0.0 0.1
02:45 7.9 84.1 1014.5 2.6 ESE 4.6 E 0.0 0.3
02:50 7.9 83.9 1014.6 2.7 E 3.6 E 0.0 0.1
02:55 7.9 84.7 1014.6 2.9 ESE 4.0 E 0.0 0.3
03:00 7.9 85.1 1014.6 2.8 ESE 4.6 ESE 0.0 0.2
03:05 7.9 84.6 1014.6 3.0 ESE 5.9 E 0.0 0.2
03:10 7.8 85.3 1014.6 3.1 E 4.0 ENE 0.0 0.4
03:15 7.8 85.3 1014.7 1.4 SSE 2.8 E 0.0 0.1
03:20 7.5 83.7 1014.7 0.9 ESE 1.8 SSE 0.0 0.0
03:25 7.2 83.7 1014.7 2.2 SSE 3.3 SE 0.0 0.1
03:30 7.0 84.8 1014.6 1.9 ESE 3.5 SE 0.0 0.4
03:35 7.1 86.8 1014.6 2.2 SE 4.0 SE 0.0 0.2
03:40 6.9 86.4 1014.5 3.6 SSE 5.0 SSE 0.0 0.0
03:45 6.8 87.5 1014.4 2.8 SE 5.0 SE 0.0 0.1
03:50 7.1 89.3 1014.2 2.1 SE 3.9 SSE 0.0 0.1
03:55 7.2 89.6 1014.1 2.0 E 3.9 ENE 0.0 0.2
04:00 7.2 89.5 1014.2 2.7 ESE 3.8 E 0.0 0.1
04:05 7.1 89.4 1014.1 1.8 SE 4.1 S 0.0 0.0
04:10 7.0 89.0 1014.1 2.5 SE 5.0 SE 0.0 0.0
04:15 6.8 88.8 1014.2 1.2 E 2.4 ESE 0.0 0.0
04:20 6.8 89.5 1014.2 0.9 SSE 1.5 E 0.0 0.0
04:25 6.6 88.9 1014.3 1.3 SE 2.7 SE 0.0 0.0
04:30 6.4 89.2 1014.3 1.2 ESE 2.9 SE 0.0 0.0
04:35 6.3 89.8 1014.1 3.2 S 5.7 SSE 0.0 0.0
04:40 6.2 90.0 1014.0 2.5 ESE 6.0 SE 0.0 0.0
04:45 6.4 90.7 1014.0 1.3 NNW 2.8 NNW 0.0 0.1
04:50 6.5 90.5 1014.2 2.1 N 4.1 N 0.0 0.0
04:55 6.6 90.0 1014.3 1.7 NE 2.9 ENE 0.0 0.0
05:00 6.6 89.2 1014.3 1.5 E 3.3 NE 0.0 0.4
05:05 6.5 89.0 1014.5 3.1 NE 4.9 NE 0.0 1.7
05:10 6.5 89.5 1014.6 3.1 NNE 5.9 NE 0.0 3.2
05:15 6.4 89.0 1014.6 3.4 SSE 5.5 SE 0.0 4.9
05:20 6.4 89.1 1014.5 4.8 SSE 9.0 SE 0.0 7.5
05:25 6.6 88.1 1014.4 6.1 SE 9.1 SSE 0.0 9.2
05:30 6.8 86.9 1014.3 3.7 ESE 7.1 SE 0.0 21.0
05:35 6.9 86.1 1014.1 3.3 SE 6.1 SE 0.0 29.0
05:40 6.9 85.7 1014.3 1.7 ENE 3.3 SSE 0.0 40.4
05:45 7.1 85.4 1014.1 3.2 SSE 5.3 SE 0.0 46.6
05:50 7.4 84.2 1014.3 2.6 E 4.1 ESE 0.0 39.0
05:55 7.7 82.7 1014.3 2.6 E 4.4 E 0.0 40.1
06:00 7.9 81.4 1014.2 2.0 SE 3.6 SSE 0.0 41.5
06:05 8.1 80.8 1014.2 1.0 ESE 2.2 S 0.0 44.2
06:10 8.3 79.5 1014.3 2.6 NNE 4.6 NNE 0.0 43.4
06:15 8.5 77.4 1014.4 3.3 N 4.8 NNE 0.0 54.1
06:20 8.7 75.9 1014.4 4.6 NNW 7.1 NNW 0.0 72.2
06:25 8.8 74.8 1014.3 5.9 N 8.9 N 0.0 121.4
06:30 8.8 73.8 1014.2 4.9 N 7.6 NNW 0.0 190.8
06:35 8.8 74.2 1014.2 4.4 N 7.6 NNW 0.0 191.6
06:40 8.7 74.2 1014.2 4.1 N 6.0 NNW 0.0 206.0
06:45 8.8 73.9 1014.2 4.7 NNE 7.5 NNW 0.0 222.7
06:50 8.9 73.2 1014.2 3.9 NNW 6.6 NW 0.0 244.7
06:55 9.0 72.8 1014.2 5.7 NNW 7.9 NW 0.0 257.3
07:00 9.3 72.1 1014.2 4.0 NW 6.8 NW 0.0 278.4
07:05 9.5 71.4 1014.1 4.3 NW 7.6 WNW 0.0 301.3
07:10 9.8 70.7 1014.0 4.2 NW 7.1 NW 0.0 319.8
07:15 9.9 70.3 1014.1 4.6 NNW 8.7 NW 0.0 337.3
07:20 10.0 70.5 1014.0 5.2 NW 9.7 NNW 0.0 355.0
07:25 10.2 70.1 1013.9 4.8 NW 9.1 WNW 0.0 373.9
07:30 10.2 68.6 1013.9 4.7 N 8.1 N 0.0 390.5
07:35 10.3 69.3 1013.9 3.6 NW 7.8 NW 0.0 412.4
07:40 10.5 68.7 1013.9 3.0 NW 5.1 NNW 0.0 435.0
07:45 10.7 67.8 1013.9 3.8 N 8.5 NNE 0.0 442.6
07:50 10.8 66.3 1013.9 5.1 NNW 9.1 NNW 0.0 468.4
07:55 10.8 64.7 1014.0 3.7 N 6.9 N 0.0 476.8
08:00 10.9 64.9 1013.9 2.3 NNE 5.8 N 0.0 491.1
08:05 11.3 63.5 1013.8 2.2 ENE 5.7 NE 0.0 509.2
08:10 12.2 60.8 1013.8 2.7 SE 5.6 SW 0.0 520.2
08:15 13.0 58.4 1013.8 3.8 W 8.8 WNW 0.0 538.7
08:20 12.8 59.4 1013.9 5.3 NNW 10.8 NNW 0.0 593.7
08:25 12.3 60.7 1013.9 7.2 NNW 11.4 NW 0.0 468.0
08:30 11.8 61.9 1013.8 4.7 NNE 8.9 NNE 0.0 503.8
08:35 11.9 62.3 1013.8 2.1 N 6.0 0.0 422.8
08:40 11.9 61.8 1013.8 5.0 N 9.0 N 0.0 514.1
08:45 12.4 62.6 1013.7 3.4 NNW 9.0 SSW 0.0 765.9
08:50 13.3 57.7 1013.7 5.4 SW 9.5 SSW 0.0 545.1
08:55 13.5 55.1 1013.7 5.0 SSE 8.8 SW 0.0 553.9
09:00 13.9 54.9 1013.7 3.0 SSW 5.7 NW 0.0 525.6
09:05 14.3 53.1 1013.6 3.8 WSW 8.9 SW 0.0 646.8
09:10 14.4 53.1 1013.6 1.9 SW 4.2 SW 0.0 565.5
09:15 14.3 52.3 1013.7 4.4 WNW 8.1 WNW 0.0 408.5
09:20 13.4 55.7 1013.8 4.7 NW 8.0 NW 0.0 426.7
09:25 13.1 56.3 1013.7 5.0 NW 8.3 NW 0.0 390.5
09:30 13.1 57.5 1013.7 3.5 WSW 8.4 NNW 0.0 417.7
09:35 13.7 55.2 1013.6 3.3 SW 7.7 W 0.0 713.5
09:40 14.1 55.4 1013.6 4.1 NW 9.6 SSW 0.0 780.9
09:45 13.9 54.8 1013.7 4.7 WNW 9.1 NW 0.0 618.8
09:50 14.0 56.2 1013.5 5.6 SSW 12.2 SW 0.0 792.1
09:55 14.8 52.9 1013.5 6.6 NW 12.6 NNW 0.0 806.0
10:00 14.4 54.0 1013.5 7.3 NNW 15.6 NNW 0.0 858.0
10:05 14.4 55.2 1013.4 9.3 NNW 17.1 NNW 0.0 837.0
10:10 14.5 55.4 1013.3 7.5 WNW 14.1 NW 0.0 808.0
10:15 15.0 54.6 1013.3 6.5 SW 15.1 SW 0.0 851.0
10:20 15.3 52.1 1013.3 4.4 SSE 9.3 NNW 0.0 846.0
10:25 15.1 53.3 1013.3 6.4 NW 12.8 NW 0.0 854.0
10:30 15.4 55.7 1013.2 4.1 WSW 12.8 WNW 0.0 747.6
10:35 15.8 52.3 1013.2 9.5 NW 15.3 NW 0.0 865.0
10:40 15.8 52.1 1013.2 7.8 W 16.0 WNW 0.0 877.0
10:45 15.8 52.0 1013.1 6.3 WNW 11.4 N 0.0 879.0
10:50 15.6 52.1 1013.1 8.2 NNW 15.2 NW 0.0 891.0
10:55 15.4 52.9 1013.0 6.6 N 10.9 NNW 0.0 896.0
11:00 15.7 52.6 1012.9 7.0 NNW 15.6 WNW 0.0 887.0
11:05 16.3 51.4 1012.9 6.5 NW 13.0 WNW 0.0 901.0
11:10 16.6 50.4 1012.8 5.8 NNW 12.1 NW 0.0 903.0
11:15 16.6 50.2 1012.7 3.5 NNW 15.9 NNW 0.0 899.0
11:20 16.5 49.3 1012.7 6.8 NNW 15.6 NW 0.0 932.0
11:25 16.6 49.5 1012.7 5.8 WSW 12.4 WSW 0.0 606.5
11:30 16.5 50.1 1012.6 4.2 W 10.1 SW 0.0 910.0
11:35 16.8 48.3 1012.5 4.4 SSE 7.8 SE 0.0 845.0
11:40 17.1 47.5 1012.4 2.9 ENE 6.8 ENE 0.0 935.0
11:45 17.3 48.3 1012.3 5.5 WNW 12.3 WNW 0.0 932.0
11:50 17.8 46.7 1012.2 5.9 SW 12.3 SSW 0.0 934.0
11:55 18.1 44.6 1012.1 8.3 S 17.2 SSW 0.0 894.0
12:00 18.3 44.4 1012.0 6.2 SW 14.6 WSW 0.0 939.0
12:05 18.7 43.9 1012.0 6.5 WNW 12.4 N 0.0 956.0
12:10 18.2 45.6 1012.0 6.2 NW 12.3 WNW 0.0 953.0
12:15 18.3 45.6 1011.9 5.0 WNW 11.6 NW 0.0 1003.0
12:20 18.4 44.6 1011.8 4.4 NW 10.4 NW 0.0 913.0
12:25 18.2 44.8 1011.8 7.4 NNW 14.4 WNW 0.0 925.0
12:30 18.4 44.3 1011.8 6.7 WNW 13.3 W 0.0 943.0
12:35 18.7 42.9 1011.7 5.6 NNW 13.5 NNW 0.0 944.0
12:40 18.8 44.1 1011.7 7.7 W 13.7 SW 0.0 935.0
12:45 19.5 39.8 1011.7 8.1 SW 18.0 SSW 0.0 919.0
12:50 19.7 36.9 1011.6 8.5 SSW 21.5 SSW 0.0 899.0
12:55 19.5 38.3 1011.5 6.0 SW 17.2 SSW 0.0 891.0
13:00 20.3 37.0 1011.5 7.4 SW 14.8 SSW 0.0 875.0
13:05 20.7 33.4 1011.4 7.1 SSW 13.3 SSW 0.0 858.0
13:10 20.5 33.9 1011.4 7.0 WSW 13.6 WNW 0.0 861.0
13:15 20.3 34.4 1011.4 8.3 SW 16.8 S 0.0 850.0
13:20 20.5 33.9 1011.3 11.6 SSW 20.4 SW 0.0 845.0
13:25 20.5 33.6 1011.3 9.6 SW 19.4 SW 0.0 841.0
13:30 20.8 33.1 1011.2 5.2 SW 13.0 SW 0.0 824.0
13:35 20.8 32.8 1011.1 4.3 WSW 17.4 SSW 0.0 817.0
13:40 20.6 32.5 1011.0 10.6 SW 23.2 SSW 0.0 810.0
13:45 20.4 33.0 1011.0 8.9 W 18.5 NNW 0.0 799.2
13:50 19.8 34.1 1010.8 7.5 NW 14.0 NW 0.0 792.3
13:55 19.5 35.1 1010.7 6.6 WNW 13.0 W 0.0 785.7
14:00 19.9 34.7 1010.7 7.5 W 21.7 WNW 0.0 574.6
14:05 19.9 33.5 1010.7 8.9 W 23.4 NW 0.0 719.7
14:10 20.1 33.3 1010.7 9.1 W 17.4 WSW 0.0 762.0
14:15 20.5 32.3 1010.7 8.1 W 19.0 WNW 0.0 749.5
14:20 20.7 31.9 1010.6 7.1 SW 13.8 SW 0.0 736.0
14:25 20.8 33.8 1010.5 7.5 WSW 20.1 SSW 0.0 720.2
14:30 20.9 35.1 1010.4 10.7 SW 24.6 SSW 0.0 706.1
14:35 20.7 37.5 1010.4 12.2 SSW 20.9 SSW 0.0 698.9
14:40 20.4 38.1 1010.4 12.7 SSW 22.4 SSW 0.0 688.1
14:45 20.3 38.8 1010.3 13.0 SW 27.9 SSW 0.0 671.8
14:50 19.9 39.0 1010.3 11.2 S 22.6 S 0.0 662.3
14:55 20.1 39.5 1010.2 8.6 SSW 19.7 SW 0.0 648.8
15:00 20.3 38.6 1010.3 10.6 SSW 21.9 SSW 0.0 663.1
15:05 20.2 39.0 1010.2 12.9 SSW 20.3 SSW 0.0 640.2
15:10 20.0 39.5 1010.1 12.1 SW 22.7 SSW 0.0 613.9
15:15 20.0 39.0 1010.1 10.6 SSW 16.5 SW 0.0 610.2
15:20 19.9 39.1 1010.0 8.5 SSW 19.2 SW 0.0 600.9
15:25 20.0 39.3 1010.0 11.6 SW 23.7 SSW 0.0 603.2
15:30 20.0 38.7 1010.0 13.4 SW 21.3 SW 0.0 619.5
15:35 19.9 38.7 1010.0 13.2 SSW 22.2 SW 0.0 568.5
15:40 19.7 39.6 1010.0 12.8 SSW 22.8 SW 0.0 457.6
15:45 19.7 39.9 1010.0 10.2 SSW 23.8 SW 0.0 507.3
15:50 19.6 41.1 1010.1 6.4 SSE 12.3 SE 0.0 302.3
15:55 18.8 50.2 1010.1 5.7 SSE 17.4 ESE 0.0 375.4
16:00 18.4 50.7 1010.1 8.3 SSE 15.8 S 0.0 162.0
16:05 17.7 51.5 1010.1 11.0 S 19.5 S 0.0 125.0
16:10 16.9 53.6 1010.1 10.9 S 19.4 SSE 0.0 116.3
16:15 16.4 55.4 1010.1 8.8 SSE 18.1 SSE 0.0 114.1
16:20 16.1 56.5 1010.1 7.8 SE 20.0 S 0.0 106.2
16:25 15.9 56.8 1010.2 10.5 SSE 18.0 ESE 0.0 115.2
16:30 15.6 57.6 1010.2 9.0 SE 21.3 SSE 0.0 116.5
16:35 15.4 58.1 1010.3 10.2 SSE 17.9 SSE 0.0 104.0
16:40 15.3 58.2 1010.3 10.6 SSE 17.8 SE 0.0 92.6
16:45 15.3 58.6 1010.3 8.9 S 16.5 SSE 0.0 103.4
16:50 15.3 58.9 1010.3 8.5 SE 16.7 S 0.0 98.7
16:55 15.1 59.2 1010.4 7.7 SE 17.2 SSE 0.0 106.1
17:00 15.1 59.0 1010.5 5.9 SSE 15.9 S 0.0 93.5
17:05 15.0 59.3 1010.6 5.2 SE 11.8 SE 0.0 104.1
17:10 14.9 59.8 1010.7 5.3 SE 12.7 SSE 0.0 67.5
17:15 14.8 60.6 1010.8 5.3 E 12.9 SE 0.0 55.7
17:20 14.4 63.2 1010.8 4.8 E 12.4 SE 0.0 55.0
17:25 14.1 65.2 1010.9 5.8 ENE 14.0 NE 0.0 48.3
17:30 13.9 66.4 1010.9 4.8 ENE 12.3 NE 0.0 46.5
17:35 13.7 67.3 1010.9 5.3 SE 11.6 ESE 0.0 58.0
17:40 13.7 67.3 1011.0 3.0 SE 8.9 SSE 0.0 44.7
17:45 13.8 67.1 1011.0 4.1 E 8.9 SE 0.0 45.0
17:50 13.6 68.1 1011.2 5.2 ENE 10.8 NE 0.0 28.5
17:55 13.3 69.1 1011.2 4.4 ESE 11.8 ESE 0.0 21.0
18:00 13.3 69.3 1011.3 3.1 ENE 7.7 NE 0.0 15.1
18:05 13.2 69.8 1011.4 3.4 NW 6.7 NNW 0.0 13.1
18:10 13.2 69.8 1011.4 3.1 N 5.9 N 0.0 13.5
18:15 13.1 69.9 1011.5 1.5 N 5.8 NNW 0.0 15.1
Máxima 21.0 90.7 1016.0 13.4 SW 27.9 SSW 0.0 1003.0
Mínima 6.1 31.9 1010.0
Total 0.0